Terminal Aerodrome Forecast
Issued by NWS

Home | Current Version | Previous Version | Graphics & Text | Print | Product List | Glossary On
Versions: 1 2 3 4 5 6 7 8 9 10 11 12 13 14 15 16
590
FTUS43 KUNR 170520
TAFGCC
TAF
KGCC 170520Z 1706/1806 15025G35KT P6SM SCT250 WS020/21050KT
     FM170900 21014KT P6SM BKN120
     FM171100 32015KT P6SM BKN015
     FM171700 33025G35KT 3SM -SHSN BR OVC008
     FM180000 33014KT P6SM SCT015 BKN050=

USA.gov is the U.S. government's official web portal to all federal, state and local government web resources and services.